QTR203 LGAV-EGLL
Flight info
| Callsign | QTR203 |
|---|---|
| Flight time | 3h 15m |
| Altitude | 40000 |
| Route | KOR UL53 IPTES DCT DIMIS DCT VAKSU DCT ROTAR DCT BORMI DCT RESIA DCT ELMUR L613 HOC DCT LUL DCT RLP DCT ROTSI DCT KOTUN DCT NINAL DCT ABNUR DCT DIMAL DCT ALESO |
| Aircraft | A359/H-SDE2E3GHIJ3J4J5LM1ORWXY/LB1D1 |
Departure
| Time | 2026-05-07 15:47 |
|---|---|
| Airport | Athens Eleftherios Venizelos International Airport (LGAV) |
Arrival
| Time | 2026-05-07 19:02 |
|---|---|
| Airport | London Heathrow Airport (EGLL) |
| Time | Latitude | Longitude | Altitude | Speed | Heading |
|---|---|---|---|---|---|
| 2026-05-07 15:23 | 37.93512 | 23.94759 | 295 ft | 0 kts | 310° |
| 2026-05-07 15:35 | 37.93511 | 23.94760 | 295 ft | 2 kts | 310° |
| 2026-05-07 15:35 | 37.93495 | 23.94783 | 300 ft | 4 kts | 313° |
| 2026-05-07 15:35 | 37.93480 | 23.94806 | 299 ft | 4 kts | 313° |
| 2026-05-07 15:36 | 37.93461 | 23.94826 | 298 ft | 4 kts | 339° |
| 2026-05-07 15:36 | 37.93444 | 23.94831 | 296 ft | 4 kts | 22° |
| 2026-05-07 15:36 | 37.93426 | 23.94814 | 296 ft | 4 kts | 51° |
| 2026-05-07 15:36 | 37.93409 | 23.94788 | 297 ft | 4 kts | 47° |
| 2026-05-07 15:37 | 37.93400 | 23.94776 | 298 ft | 1 kts | 38° |
| 2026-05-07 15:40 | 37.93411 | 23.94787 | 294 ft | 8 kts | 39° |
| 2026-05-07 15:41 | 37.93496 | 23.94870 | 300 ft | 22 kts | 37° |
| 2026-05-07 15:41 | 37.93639 | 23.95006 | 302 ft | 28 kts | 37° |
| 2026-05-07 15:41 | 37.93808 | 23.95165 | 303 ft | 30 kts | 36° |
| 2026-05-07 15:41 | 37.93913 | 23.95376 | 305 ft | 31 kts | 52° |
| 2026-05-07 15:42 | 37.94086 | 23.95551 | 307 ft | 33 kts | 36° |
| 2026-05-07 15:42 | 37.94274 | 23.95732 | 306 ft | 34 kts | 37° |
| 2026-05-07 15:42 | 37.94351 | 23.95878 | 309 ft | 20 kts | 101° |
| 2026-05-07 15:42 | 37.94451 | 23.96039 | 311 ft | 30 kts | 37° |
| 2026-05-07 15:43 | 37.94603 | 23.96185 | 312 ft | 22 kts | 36° |
| 2026-05-07 15:43 | 37.94761 | 23.96334 | 315 ft | 34 kts | 37° |
| 2026-05-07 15:43 | 37.94965 | 23.96530 | 316 ft | 39 kts | 37° |
| 2026-05-07 15:43 | 37.95140 | 23.96697 | 317 ft | 31 kts | 37° |
| 2026-05-07 15:44 | 37.95281 | 23.96836 | 319 ft | 20 kts | 51° |
| 2026-05-07 15:44 | 37.95278 | 23.96928 | 319 ft | 0 kts | 124° |
| 2026-05-07 15:46 | 37.95184 | 23.97001 | 320 ft | 15 kts | 192° |
| 2026-05-07 15:46 | 37.95051 | 23.96887 | 319 ft | 49 kts | 218° |
| 2026-05-07 15:46 | 37.94589 | 23.96447 | 313 ft | 115 kts | 216° |
| 2026-05-07 15:47 | 37.93792 | 23.95695 | 329 ft | 167 kts | 216° |
| 2026-05-07 15:47 | 37.92864 | 23.94898 | 1159 ft | 157 kts | 210° |
| 2026-05-07 15:47 | 37.91844 | 23.94279 | 1701 ft | 172 kts | 203° |
| 2026-05-07 15:47 | 37.90674 | 23.93603 | 2027 ft | 197 kts | 205° |
| 2026-05-07 15:48 | 37.89407 | 23.92803 | 2588 ft | 208 kts | 207° |
| 2026-05-07 15:48 | 37.88102 | 23.91921 | 3116 ft | 222 kts | 208° |
| 2026-05-07 15:48 | 37.86693 | 23.90943 | 3627 ft | 237 kts | 209° |
| 2026-05-07 15:48 | 37.85236 | 23.89916 | 4333 ft | 242 kts | 209° |
| 2026-05-07 15:49 | 37.83744 | 23.88870 | 5094 ft | 247 kts | 210° |
| 2026-05-07 15:49 | 37.82281 | 23.87603 | 5636 ft | 262 kts | 223° |
| 2026-05-07 15:49 | 37.81219 | 23.85739 | 6306 ft | 270 kts | 248° |
| 2026-05-07 15:49 | 37.80920 | 23.83407 | 7141 ft | 271 kts | 272° |
| 2026-05-07 15:50 | 37.81156 | 23.81043 | 8040 ft | 272 kts | 282° |
| 2026-05-07 15:50 | 37.81642 | 23.78714 | 8937 ft | 275 kts | 287° |
| 2026-05-07 15:50 | 37.82242 | 23.76398 | 9803 ft | 279 kts | 288° |
| 2026-05-07 15:50 | 37.82879 | 23.74030 | 10470 ft | 291 kts | 288° |
| 2026-05-07 15:51 | 37.83536 | 23.71515 | 10803 ft | 312 kts | 287° |
| 2026-05-07 15:51 | 37.84207 | 23.68814 | 11127 ft | 332 kts | 286° |
| 2026-05-07 15:51 | 37.84886 | 23.65940 | 11521 ft | 347 kts | 285° |
| 2026-05-07 15:51 | 37.85557 | 23.63007 | 12175 ft | 353 kts | 285° |
| 2026-05-07 15:52 | 37.86230 | 23.60017 | 12951 ft | 355 kts | 285° |
| 2026-05-07 15:52 | 37.86904 | 23.56999 | 13727 ft | 357 kts | 285° |
| 2026-05-07 15:52 | 37.87582 | 23.53962 | 14445 ft | 359 kts | 285° |
| 2026-05-07 15:52 | 37.88266 | 23.50897 | 15121 ft | 362 kts | 285° |
| 2026-05-07 15:53 | 37.88954 | 23.47821 | 15809 ft | 365 kts | 285° |
| 2026-05-07 15:53 | 37.89645 | 23.44730 | 16535 ft | 367 kts | 285° |
| 2026-05-07 15:53 | 37.90342 | 23.41606 | 17268 ft | 369 kts | 285° |
| 2026-05-07 15:53 | 37.91045 | 23.38461 | 17964 ft | 372 kts | 285° |
| 2026-05-07 15:54 | 37.91752 | 23.35293 | 18620 ft | 375 kts | 285° |
| 2026-05-07 15:54 | 37.92455 | 23.32135 | 19172 ft | 379 kts | 285° |
| 2026-05-07 15:54 | 37.93173 | 23.28909 | 19742 ft | 383 kts | 285° |
| 2026-05-07 15:54 | 37.93898 | 23.25644 | 20331 ft | 386 kts | 285° |
| 2026-05-07 15:55 | 37.94628 | 23.22352 | 20924 ft | 390 kts | 285° |
| 2026-05-07 15:55 | 37.95365 | 23.19028 | 21509 ft | 394 kts | 285° |
| 2026-05-07 15:55 | 37.96106 | 23.15674 | 22108 ft | 397 kts | 285° |
| 2026-05-07 15:55 | 37.96854 | 23.12288 | 22705 ft | 401 kts | 285° |
| 2026-05-07 15:56 | 37.97610 | 23.08863 | 23316 ft | 405 kts | 285° |
| 2026-05-07 15:56 | 37.98370 | 23.05413 | 23900 ft | 408 kts | 285° |
| 2026-05-07 15:56 | 37.99135 | 23.01932 | 24454 ft | 410 kts | 285° |
| 2026-05-07 15:56 | 37.99902 | 22.98435 | 25040 ft | 411 kts | 285° |
| 2026-05-07 15:57 | 38.00667 | 22.94942 | 25639 ft | 413 kts | 285° |
| 2026-05-07 15:57 | 38.01427 | 22.91464 | 26215 ft | 414 kts | 285° |
| 2026-05-07 15:57 | 38.02196 | 22.87941 | 26780 ft | 415 kts | 285° |
| 2026-05-07 15:57 | 38.02968 | 22.84403 | 27344 ft | 417 kts | 285° |
| 2026-05-07 15:58 | 38.03741 | 22.80855 | 27885 ft | 418 kts | 285° |
| 2026-05-07 15:58 | 38.04516 | 22.77290 | 28441 ft | 420 kts | 285° |
| 2026-05-07 15:58 | 38.05310 | 22.73721 | 28985 ft | 421 kts | 287° |
| 2026-05-07 15:58 | 38.06354 | 22.70239 | 29518 ft | 423 kts | 294° |
| 2026-05-07 15:59 | 38.07739 | 22.66940 | 30024 ft | 425 kts | 299° |
| 2026-05-07 15:59 | 38.09321 | 22.63747 | 30465 ft | 427 kts | 302° |
| 2026-05-07 15:59 | 38.10983 | 22.60630 | 30974 ft | 425 kts | 303° |
| 2026-05-07 15:59 | 38.12666 | 22.57609 | 31485 ft | 422 kts | 303° |
| 2026-05-07 16:00 | 38.14389 | 22.54537 | 31983 ft | 420 kts | 303° |
| 2026-05-07 16:00 | 38.16054 | 22.51553 | 32483 ft | 417 kts | 303° |
| 2026-05-07 16:00 | 38.17704 | 22.48576 | 33278 ft | 407 kts | 303° |
| 2026-05-07 16:00 | 38.19313 | 22.45671 | 34134 ft | 395 kts | 303° |
| 2026-05-07 16:01 | 38.20863 | 22.42831 | 34777 ft | 389 kts | 303° |
| 2026-05-07 16:01 | 38.22407 | 22.40001 | 35096 ft | 389 kts | 303° |
| 2026-05-07 16:01 | 38.23949 | 22.37168 | 35344 ft | 390 kts | 303° |
| 2026-05-07 16:01 | 38.25492 | 22.34330 | 35636 ft | 390 kts | 303° |
| 2026-05-07 16:02 | 38.27034 | 22.31489 | 35983 ft | 389 kts | 303° |
| 2026-05-07 16:02 | 38.28571 | 22.28653 | 36266 ft | 388 kts | 303° |
| 2026-05-07 16:02 | 38.30105 | 22.25832 | 36623 ft | 386 kts | 303° |
| 2026-05-07 16:02 | 38.31625 | 22.23024 | 36943 ft | 385 kts | 303° |
| 2026-05-07 16:03 | 38.33145 | 22.20218 | 37244 ft | 384 kts | 303° |
| 2026-05-07 16:03 | 38.34658 | 22.17414 | 37507 ft | 385 kts | 303° |
| 2026-05-07 16:03 | 38.36158 | 22.14623 | 37771 ft | 385 kts | 303° |
| 2026-05-07 16:03 | 38.37672 | 22.11808 | 38114 ft | 384 kts | 303° |
| 2026-05-07 16:04 | 38.39175 | 22.09012 | 38466 ft | 381 kts | 303° |
| 2026-05-07 16:04 | 38.40670 | 22.06234 | 38702 ft | 381 kts | 303° |
| 2026-05-07 16:04 | 38.42172 | 22.03407 | 38770 ft | 386 kts | 303° |
| 2026-05-07 16:04 | 38.43671 | 22.00582 | 39000 ft | 385 kts | 303° |
| 2026-05-07 16:05 | 38.45184 | 21.97761 | 39194 ft | 384 kts | 303° |
| 2026-05-07 16:05 | 38.46679 | 21.94989 | 39303 ft | 386 kts | 303° |
| 2026-05-07 16:05 | 38.48232 | 21.92110 | 39359 ft | 389 kts | 303° |
| 2026-05-07 16:06 | 38.51286 | 21.86438 | 39653 ft | 390 kts | 303° |
| 2026-05-07 16:06 | 38.52811 | 21.83576 | 39789 ft | 391 kts | 302° |
| 2026-05-07 16:06 | 38.54338 | 21.80678 | 39762 ft | 395 kts | 303° |
| 2026-05-07 16:07 | 38.57444 | 21.74867 | 39970 ft | 396 kts | 303° |
| 2026-05-07 16:07 | 38.59001 | 21.71953 | 40076 ft | 398 kts | 303° |
| 2026-05-07 16:07 | 38.60561 | 21.69026 | 40100 ft | 398 kts | 303° |
| 2026-05-07 16:08 | 38.63675 | 21.63165 | 40076 ft | 398 kts | 302° |
| 2026-05-07 16:08 | 38.66788 | 21.57288 | 40098 ft | 400 kts | 302° |
| 2026-05-07 16:09 | 38.70089 | 21.51621 | 40090 ft | 401 kts | 309° |
| 2026-05-07 16:09 | 38.74374 | 21.46973 | 40092 ft | 409 kts | 322° |
| 2026-05-07 16:10 | 38.79404 | 21.43457 | 40089 ft | 414 kts | 327° |
| 2026-05-07 16:10 | 38.84568 | 21.40161 | 40082 ft | 415 kts | 327° |
| 2026-05-07 16:11 | 38.89751 | 21.36872 | 40081 ft | 415 kts | 327° |
| 2026-05-07 16:11 | 38.94918 | 21.33546 | 40085 ft | 415 kts | 327° |
| 2026-05-07 16:12 | 38.99210 | 21.30764 | 40084 ft | 416 kts | 327° |
| 2026-05-07 16:12 | 39.05228 | 21.26856 | 40091 ft | 418 kts | 327° |
| 2026-05-07 16:13 | 39.10424 | 21.23478 | 40081 ft | 418 kts | 327° |
| 2026-05-07 16:13 | 39.14751 | 21.20662 | 40093 ft | 419 kts | 327° |
| 2026-05-07 16:14 | 39.19950 | 21.17270 | 40080 ft | 418 kts | 327° |
| 2026-05-07 16:14 | 39.25156 | 21.13870 | 40085 ft | 419 kts | 327° |
| 2026-05-07 16:15 | 39.30329 | 21.10484 | 40086 ft | 419 kts | 327° |
| 2026-05-07 16:15 | 39.35540 | 21.07069 | 40087 ft | 420 kts | 327° |
| 2026-05-07 16:16 | 39.40755 | 21.03645 | 40091 ft | 421 kts | 327° |
| 2026-05-07 16:16 | 39.45988 | 21.00202 | 40105 ft | 422 kts | 327° |
| 2026-05-07 16:17 | 39.51245 | 20.96742 | 40097 ft | 423 kts | 327° |
| 2026-05-07 16:17 | 39.56495 | 20.93281 | 40106 ft | 424 kts | 327° |
| 2026-05-07 16:18 | 39.61717 | 20.89830 | 40109 ft | 424 kts | 327° |
| 2026-05-07 16:18 | 39.66983 | 20.86343 | 40105 ft | 425 kts | 327° |
| 2026-05-07 16:19 | 39.72258 | 20.82845 | 40099 ft | 425 kts | 327° |
| 2026-05-07 16:19 | 39.77534 | 20.79341 | 40104 ft | 426 kts | 327° |
| 2026-05-07 16:20 | 39.82810 | 20.75829 | 40102 ft | 426 kts | 326° |
| 2026-05-07 16:20 | 39.88055 | 20.72332 | 40097 ft | 427 kts | 326° |
| 2026-05-07 16:21 | 39.93346 | 20.68795 | 40103 ft | 427 kts | 326° |
| 2026-05-07 16:21 | 39.98636 | 20.65257 | 40090 ft | 428 kts | 326° |
| 2026-05-07 16:22 | 40.03932 | 20.61709 | 40092 ft | 428 kts | 326° |
| 2026-05-07 16:22 | 40.08954 | 20.57669 | 40097 ft | 421 kts | 318° |
| 2026-05-07 16:23 | 40.13615 | 20.53015 | 40097 ft | 421 kts | 317° |
| 2026-05-07 16:23 | 40.18215 | 20.48266 | 40098 ft | 421 kts | 316° |
| 2026-05-07 16:24 | 40.22814 | 20.43503 | 40096 ft | 421 kts | 316° |
| 2026-05-07 16:24 | 40.27384 | 20.38774 | 40095 ft | 422 kts | 316° |
| 2026-05-07 16:25 | 40.31997 | 20.34005 | 40094 ft | 423 kts | 316° |
| 2026-05-07 16:25 | 40.36618 | 20.29226 | 40091 ft | 424 kts | 316° |
| 2026-05-07 16:26 | 40.41257 | 20.24415 | 40081 ft | 425 kts | 316° |
| 2026-05-07 16:26 | 40.45900 | 20.19594 | 40079 ft | 426 kts | 316° |
| 2026-05-07 16:27 | 40.50556 | 20.14744 | 40074 ft | 427 kts | 316° |
| 2026-05-07 16:27 | 40.55207 | 20.09893 | 40078 ft | 428 kts | 316° |
| 2026-05-07 16:28 | 40.59883 | 20.05009 | 40057 ft | 428 kts | 316° |
| 2026-05-07 16:28 | 40.64550 | 20.00127 | 40055 ft | 430 kts | 316° |
| 2026-05-07 16:29 | 40.69237 | 19.95214 | 40059 ft | 431 kts | 316° |
| 2026-05-07 16:29 | 40.73900 | 19.90312 | 40049 ft | 431 kts | 316° |
| 2026-05-07 16:30 | 40.78599 | 19.85368 | 40045 ft | 432 kts | 316° |
| 2026-05-07 16:30 | 40.83303 | 19.80408 | 40047 ft | 433 kts | 316° |
| 2026-05-07 16:31 | 40.88013 | 19.75431 | 40049 ft | 434 kts | 316° |
| 2026-05-07 16:31 | 40.92728 | 19.70438 | 40047 ft | 435 kts | 316° |
| 2026-05-07 16:32 | 40.97462 | 19.65417 | 40047 ft | 436 kts | 316° |
| 2026-05-07 16:32 | 41.02204 | 19.60379 | 40050 ft | 437 kts | 316° |
| 2026-05-07 16:33 | 41.06919 | 19.55361 | 40052 ft | 438 kts | 316° |
| 2026-05-07 16:33 | 41.11668 | 19.50298 | 40052 ft | 438 kts | 316° |
| 2026-05-07 16:34 | 41.16423 | 19.45217 | 40055 ft | 439 kts | 316° |
| 2026-05-07 16:34 | 41.21188 | 19.40115 | 40056 ft | 440 kts | 316° |
| 2026-05-07 16:35 | 41.25958 | 19.34998 | 40057 ft | 440 kts | 316° |
| 2026-05-07 16:35 | 41.30734 | 19.29866 | 40060 ft | 441 kts | 316° |
| 2026-05-07 16:36 | 41.35479 | 19.24757 | 40059 ft | 441 kts | 316° |
| 2026-05-07 16:36 | 41.40250 | 19.19616 | 39987 ft | 437 kts | 313° |
| 2026-05-07 16:36 | 41.42581 | 19.17133 | 40050 ft | 422 kts | 314° |
| 2026-05-07 16:37 | 41.44840 | 19.14708 | 40065 ft | 412 kts | 312° |
| 2026-05-07 16:37 | 41.49243 | 19.09875 | 40062 ft | 409 kts | 313° |
| 2026-05-07 16:38 | 41.53668 | 19.05067 | 40065 ft | 410 kts | 313° |
| 2026-05-07 16:38 | 41.58110 | 19.00246 | 40063 ft | 411 kts | 313° |
| 2026-05-07 16:39 | 41.62552 | 18.95414 | 40065 ft | 412 kts | 313° |
| 2026-05-07 16:39 | 41.67006 | 18.90556 | 40064 ft | 413 kts | 313° |
| 2026-05-07 16:40 | 41.71437 | 18.85713 | 40064 ft | 414 kts | 313° |
| 2026-05-07 16:40 | 41.75913 | 18.80811 | 40067 ft | 416 kts | 313° |
| 2026-05-07 16:41 | 41.80399 | 18.75890 | 40051 ft | 417 kts | 313° |
| 2026-05-07 16:41 | 41.84890 | 18.70954 | 40058 ft | 418 kts | 313° |
| 2026-05-07 16:42 | 41.89395 | 18.65994 | 40060 ft | 419 kts | 313° |
| 2026-05-07 16:42 | 41.93883 | 18.61043 | 40059 ft | 420 kts | 313° |
| 2026-05-07 16:43 | 41.98408 | 18.56042 | 40060 ft | 422 kts | 313° |
| 2026-05-07 16:43 | 42.02667 | 18.50682 | 40060 ft | 415 kts | 306° |
| 2026-05-07 16:44 | 42.06503 | 18.44868 | 40056 ft | 416 kts | 304° |
| 2026-05-07 16:44 | 42.10281 | 18.38969 | 40052 ft | 417 kts | 304° |
| 2026-05-07 16:45 | 42.14068 | 18.33032 | 40052 ft | 418 kts | 304° |
| 2026-05-07 16:45 | 42.17869 | 18.27078 | 40053 ft | 420 kts | 304° |
| 2026-05-07 16:46 | 42.21662 | 18.21135 | 40054 ft | 422 kts | 304° |
| 2026-05-07 16:46 | 42.25498 | 18.15115 | 40056 ft | 424 kts | 305° |
| 2026-05-07 16:47 | 42.29346 | 18.09064 | 40057 ft | 425 kts | 305° |
| 2026-05-07 16:47 | 42.33204 | 18.02986 | 40056 ft | 426 kts | 305° |
| 2026-05-07 16:48 | 42.37068 | 17.96885 | 40057 ft | 427 kts | 305° |
| 2026-05-07 16:48 | 42.40909 | 17.90807 | 40054 ft | 427 kts | 305° |
| 2026-05-07 16:49 | 42.44767 | 17.84689 | 40054 ft | 427 kts | 305° |
| 2026-05-07 16:49 | 42.48626 | 17.78557 | 40050 ft | 428 kts | 305° |
| 2026-05-07 16:50 | 42.52493 | 17.72400 | 40050 ft | 429 kts | 304° |
| 2026-05-07 16:50 | 42.56337 | 17.66265 | 40049 ft | 429 kts | 304° |
| 2026-05-07 16:51 | 42.60210 | 17.60071 | 40049 ft | 430 kts | 304° |
| 2026-05-07 16:51 | 42.64087 | 17.53858 | 40043 ft | 431 kts | 304° |
| 2026-05-07 16:52 | 42.67963 | 17.47636 | 40047 ft | 432 kts | 304° |
| 2026-05-07 16:52 | 42.71845 | 17.41388 | 40045 ft | 433 kts | 304° |
| 2026-05-07 16:53 | 42.75735 | 17.35116 | 40043 ft | 433 kts | 304° |
| 2026-05-07 16:53 | 42.79598 | 17.28873 | 40030 ft | 434 kts | 304° |
| 2026-05-07 16:54 | 42.83496 | 17.22558 | 40035 ft | 435 kts | 304° |
| 2026-05-07 16:54 | 42.87391 | 17.16237 | 40043 ft | 436 kts | 304° |
| 2026-05-07 16:55 | 42.91271 | 17.09925 | 40044 ft | 436 kts | 304° |
| 2026-05-07 16:55 | 42.95172 | 17.03566 | 40045 ft | 437 kts | 304° |
| 2026-05-07 16:56 | 42.99084 | 16.97176 | 40041 ft | 438 kts | 304° |
| 2026-05-07 16:56 | 43.04940 | 16.87585 | 40040 ft | 438 kts | 304° |
| 2026-05-07 16:57 | 43.08842 | 16.81176 | 40041 ft | 439 kts | 304° |
| 2026-05-07 16:57 | 43.12742 | 16.74754 | 40038 ft | 439 kts | 304° |
| 2026-05-07 16:58 | 43.16630 | 16.68340 | 40041 ft | 440 kts | 304° |
| 2026-05-07 16:58 | 43.20546 | 16.61865 | 40037 ft | 441 kts | 304° |
| 2026-05-07 16:59 | 43.24467 | 16.55368 | 40039 ft | 442 kts | 304° |
| 2026-05-07 16:59 | 43.28384 | 16.48861 | 40040 ft | 443 kts | 304° |
| 2026-05-07 17:00 | 43.31647 | 16.43431 | 40043 ft | 443 kts | 304° |
| 2026-05-07 17:00 | 43.35578 | 16.36873 | 40041 ft | 444 kts | 304° |
| 2026-05-07 17:01 | 43.39504 | 16.30313 | 40045 ft | 444 kts | 304° |
| 2026-05-07 17:01 | 43.43439 | 16.23720 | 40051 ft | 445 kts | 304° |
| 2026-05-07 17:02 | 43.47342 | 16.17168 | 40052 ft | 446 kts | 304° |
| 2026-05-07 17:02 | 43.51276 | 16.10549 | 40041 ft | 447 kts | 304° |
| 2026-05-07 17:03 | 43.55206 | 16.03920 | 40049 ft | 447 kts | 304° |
| 2026-05-07 17:03 | 43.59152 | 15.97250 | 40045 ft | 448 kts | 304° |
| 2026-05-07 17:04 | 43.63091 | 15.90576 | 40038 ft | 449 kts | 304° |
| 2026-05-07 17:04 | 43.67030 | 15.83887 | 40033 ft | 449 kts | 304° |
| 2026-05-07 17:05 | 43.70980 | 15.77166 | 40040 ft | 450 kts | 304° |
| 2026-05-07 17:05 | 43.74915 | 15.70451 | 40040 ft | 450 kts | 304° |
| 2026-05-07 17:06 | 43.78841 | 15.63737 | 40040 ft | 451 kts | 304° |
| 2026-05-07 17:06 | 43.82784 | 15.56979 | 40036 ft | 451 kts | 304° |
| 2026-05-07 17:07 | 43.86728 | 15.50203 | 40034 ft | 452 kts | 304° |
| 2026-05-07 17:07 | 43.90676 | 15.43405 | 40030 ft | 453 kts | 304° |
| 2026-05-07 17:08 | 43.94618 | 15.36601 | 40027 ft | 453 kts | 304° |
| 2026-05-07 17:08 | 43.98564 | 15.29775 | 40025 ft | 453 kts | 304° |
| 2026-05-07 17:09 | 44.02506 | 15.22940 | 40023 ft | 454 kts | 303° |
| 2026-05-07 17:09 | 44.06452 | 15.16079 | 40027 ft | 454 kts | 303° |
| 2026-05-07 17:10 | 44.10375 | 15.09242 | 40026 ft | 454 kts | 303° |
| 2026-05-07 17:10 | 44.14319 | 15.02353 | 40023 ft | 455 kts | 303° |
| 2026-05-07 17:11 | 44.18267 | 14.95430 | 40031 ft | 457 kts | 304° |
| 2026-05-07 17:11 | 44.22231 | 14.88472 | 40028 ft | 459 kts | 304° |
| 2026-05-07 17:12 | 44.26183 | 14.81528 | 40025 ft | 460 kts | 304° |
| 2026-05-07 17:12 | 44.30151 | 14.74533 | 40024 ft | 460 kts | 304° |
| 2026-05-07 17:13 | 44.34124 | 14.67510 | 40024 ft | 460 kts | 304° |
| 2026-05-07 17:13 | 44.38099 | 14.60467 | 40020 ft | 461 kts | 304° |
| 2026-05-07 17:14 | 44.42040 | 14.53466 | 40020 ft | 461 kts | 304° |
| 2026-05-07 17:14 | 44.46015 | 14.46387 | 40021 ft | 462 kts | 303° |
| 2026-05-07 17:15 | 44.49982 | 14.39305 | 40020 ft | 462 kts | 303° |
| 2026-05-07 17:15 | 44.53952 | 14.32200 | 40020 ft | 463 kts | 303° |
| 2026-05-07 17:16 | 44.57899 | 14.25119 | 40026 ft | 463 kts | 303° |
| 2026-05-07 17:16 | 44.61864 | 14.17990 | 40017 ft | 463 kts | 303° |
| 2026-05-07 17:17 | 44.65829 | 14.10840 | 40017 ft | 463 kts | 303° |
| 2026-05-07 17:17 | 44.69794 | 14.03675 | 40021 ft | 464 kts | 303° |
| 2026-05-07 17:18 | 44.73748 | 13.96509 | 40022 ft | 464 kts | 303° |
| 2026-05-07 17:18 | 44.77679 | 13.89369 | 40023 ft | 464 kts | 303° |
| 2026-05-07 17:19 | 44.81632 | 13.82169 | 40023 ft | 465 kts | 303° |
| 2026-05-07 17:19 | 44.85586 | 13.74952 | 40020 ft | 465 kts | 303° |
| 2026-05-07 17:20 | 44.89539 | 13.67717 | 40017 ft | 465 kts | 303° |
| 2026-05-07 17:20 | 44.93488 | 13.60471 | 40016 ft | 465 kts | 303° |
| 2026-05-07 17:21 | 44.97405 | 13.53266 | 40008 ft | 465 kts | 303° |
| 2026-05-07 17:21 | 45.01341 | 13.46007 | 40003 ft | 465 kts | 303° |
| 2026-05-07 17:22 | 45.05278 | 13.38728 | 40005 ft | 466 kts | 303° |
| 2026-05-07 17:22 | 45.09212 | 13.31436 | 40001 ft | 466 kts | 302° |
| 2026-05-07 17:23 | 45.13139 | 13.24139 | 39987 ft | 466 kts | 302° |
| 2026-05-07 17:23 | 45.17060 | 13.16832 | 39989 ft | 466 kts | 302° |
| 2026-05-07 17:24 | 45.20958 | 13.09552 | 39990 ft | 466 kts | 302° |
| 2026-05-07 17:24 | 45.24872 | 13.02222 | 39993 ft | 466 kts | 302° |
| 2026-05-07 17:25 | 45.28455 | 12.94599 | 39976 ft | 463 kts | 297° |
| 2026-05-07 17:25 | 45.31862 | 12.86826 | 39982 ft | 463 kts | 297° |
| 2026-05-07 17:26 | 45.35218 | 12.79071 | 39981 ft | 463 kts | 297° |
| 2026-05-07 17:26 | 45.38589 | 12.71264 | 39982 ft | 463 kts | 297° |
| 2026-05-07 17:27 | 45.41965 | 12.63439 | 39990 ft | 463 kts | 297° |
| 2026-05-07 17:27 | 45.45332 | 12.55618 | 39992 ft | 463 kts | 297° |
| 2026-05-07 17:28 | 45.48703 | 12.47767 | 39993 ft | 464 kts | 297° |
| 2026-05-07 17:28 | 45.52042 | 12.39971 | 39993 ft | 464 kts | 297° |
| 2026-05-07 17:29 | 45.55395 | 12.32119 | 39995 ft | 464 kts | 297° |
| 2026-05-07 17:29 | 45.58752 | 12.24235 | 39967 ft | 464 kts | 296° |
| 2026-05-07 17:30 | 45.62105 | 12.16338 | 39966 ft | 465 kts | 296° |
| 2026-05-07 17:30 | 45.65454 | 12.08429 | 39995 ft | 465 kts | 296° |
| 2026-05-07 17:31 | 45.68798 | 12.00511 | 39995 ft | 465 kts | 296° |
| 2026-05-07 17:31 | 45.72139 | 11.92575 | 39988 ft | 466 kts | 296° |
| 2026-05-07 17:32 | 45.75477 | 11.84625 | 39978 ft | 466 kts | 296° |
| 2026-05-07 17:32 | 45.78245 | 11.78025 | 39990 ft | 464 kts | 297° |
| 2026-05-07 17:33 | 45.82111 | 11.68766 | 39989 ft | 463 kts | 297° |
| 2026-05-07 17:33 | 45.85412 | 11.60830 | 40005 ft | 463 kts | 297° |
| 2026-05-07 17:34 | 45.88685 | 11.52943 | 40008 ft | 463 kts | 297° |
| 2026-05-07 17:34 | 45.91974 | 11.44998 | 40013 ft | 463 kts | 296° |
| 2026-05-07 17:35 | 45.95256 | 11.37046 | 40022 ft | 462 kts | 297° |
| 2026-05-07 17:35 | 45.98535 | 11.29077 | 40033 ft | 463 kts | 297° |
| 2026-05-07 17:36 | 46.01809 | 11.21100 | 40038 ft | 463 kts | 297° |
| 2026-05-07 17:36 | 46.05075 | 11.13115 | 40053 ft | 463 kts | 296° |
| 2026-05-07 17:37 | 46.08294 | 11.05079 | 40061 ft | 463 kts | 296° |
| 2026-05-07 17:37 | 46.11496 | 10.97020 | 40063 ft | 464 kts | 296° |
| 2026-05-07 17:38 | 46.14674 | 10.89023 | 40063 ft | 464 kts | 296° |
| 2026-05-07 17:38 | 46.17893 | 10.80920 | 40056 ft | 464 kts | 296° |
| 2026-05-07 17:39 | 46.21098 | 10.72827 | 40057 ft | 464 kts | 296° |
| 2026-05-07 17:39 | 46.24308 | 10.64696 | 40038 ft | 465 kts | 296° |
| 2026-05-07 17:40 | 46.27505 | 10.56576 | 40043 ft | 464 kts | 296° |
| 2026-05-07 17:40 | 46.30693 | 10.48454 | 40030 ft | 464 kts | 296° |
| 2026-05-07 17:41 | 46.33872 | 10.40320 | 40033 ft | 465 kts | 296° |
| 2026-05-07 17:41 | 46.37048 | 10.32180 | 40021 ft | 464 kts | 296° |
| 2026-05-07 17:42 | 46.39958 | 10.24709 | 40021 ft | 465 kts | 296° |
| 2026-05-07 17:42 | 46.43110 | 10.16588 | 40025 ft | 465 kts | 296° |
| 2026-05-07 17:43 | 46.46276 | 10.08401 | 40020 ft | 465 kts | 296° |
| 2026-05-07 17:43 | 46.50070 | 10.00744 | 40023 ft | 470 kts | 306° |
| 2026-05-07 17:44 | 46.54347 | 9.93555 | 40021 ft | 471 kts | 308° |
| 2026-05-07 17:44 | 46.58710 | 9.86411 | 40022 ft | 471 kts | 308° |
| 2026-05-07 17:45 | 46.63053 | 9.79279 | 40021 ft | 471 kts | 308° |
| 2026-05-07 17:45 | 46.67359 | 9.72159 | 40025 ft | 471 kts | 308° |
| 2026-05-07 17:46 | 46.71682 | 9.64979 | 40026 ft | 471 kts | 308° |
| 2026-05-07 17:46 | 46.76001 | 9.57781 | 40035 ft | 471 kts | 308° |
| 2026-05-07 17:47 | 46.79588 | 9.51790 | 40040 ft | 472 kts | 308° |
| 2026-05-07 17:47 | 46.83900 | 9.44572 | 40025 ft | 471 kts | 308° |
| 2026-05-07 17:48 | 46.88210 | 9.37340 | 40033 ft | 471 kts | 308° |
| 2026-05-07 17:48 | 46.92521 | 9.30083 | 40031 ft | 471 kts | 308° |
| 2026-05-07 17:49 | 46.96816 | 9.22838 | 40029 ft | 471 kts | 307° |
| 2026-05-07 17:49 | 47.01086 | 9.15614 | 40023 ft | 472 kts | 308° |
| 2026-05-07 17:50 | 47.05379 | 9.08333 | 40033 ft | 472 kts | 307° |
| 2026-05-07 17:50 | 47.09647 | 9.01078 | 40033 ft | 472 kts | 307° |
| 2026-05-07 17:51 | 47.13885 | 8.93716 | 40030 ft | 470 kts | 303° |
| 2026-05-07 17:51 | 47.17032 | 8.85412 | 40030 ft | 464 kts | 290° |
| 2026-05-07 17:52 | 47.19388 | 8.76577 | 40026 ft | 464 kts | 288° |
| 2026-05-07 17:52 | 47.21612 | 8.67719 | 40022 ft | 464 kts | 288° |
| 2026-05-07 17:53 | 47.23835 | 8.58802 | 40022 ft | 464 kts | 288° |
| 2026-05-07 17:53 | 47.26067 | 8.49884 | 40022 ft | 464 kts | 288° |
| 2026-05-07 17:54 | 47.28312 | 8.40976 | 40021 ft | 464 kts | 288° |
| 2026-05-07 17:54 | 47.30540 | 8.32109 | 40021 ft | 464 kts | 288° |
| 2026-05-07 17:55 | 47.32772 | 8.23183 | 40020 ft | 464 kts | 288° |
| 2026-05-07 17:55 | 47.34985 | 8.14240 | 40020 ft | 465 kts | 288° |
| 2026-05-07 17:56 | 47.37195 | 8.05278 | 40021 ft | 465 kts | 288° |
| 2026-05-07 17:56 | 47.39402 | 7.96307 | 40021 ft | 465 kts | 288° |
| 2026-05-07 17:57 | 47.41235 | 7.88837 | 40021 ft | 465 kts | 288° |
| 2026-05-07 17:57 | 47.43807 | 7.78309 | 40021 ft | 465 kts | 288° |
| 2026-05-07 17:58 | 47.45981 | 7.69365 | 40022 ft | 466 kts | 288° |
| 2026-05-07 17:58 | 47.47739 | 7.60175 | 40022 ft | 464 kts | 282° |
| 2026-05-07 17:59 | 47.49307 | 7.50914 | 40022 ft | 465 kts | 282° |
| 2026-05-07 17:59 | 47.50842 | 7.41625 | 40024 ft | 465 kts | 282° |
| 2026-05-07 18:00 | 47.52375 | 7.32325 | 40019 ft | 465 kts | 282° |
| 2026-05-07 18:00 | 47.53903 | 7.23031 | 40025 ft | 465 kts | 282° |
| 2026-05-07 18:01 | 47.55429 | 7.13721 | 40030 ft | 465 kts | 282° |
| 2026-05-07 18:01 | 47.56946 | 7.04416 | 40025 ft | 465 kts | 282° |
| 2026-05-07 18:02 | 47.59211 | 6.90416 | 40024 ft | 465 kts | 282° |
| 2026-05-07 18:03 | 47.60705 | 6.81115 | 40024 ft | 465 kts | 281° |
| 2026-05-07 18:03 | 47.62190 | 6.71819 | 40024 ft | 465 kts | 281° |
| 2026-05-07 18:04 | 47.63674 | 6.62479 | 40031 ft | 466 kts | 281° |
| 2026-05-07 18:04 | 47.65152 | 6.53120 | 40031 ft | 466 kts | 281° |
| 2026-05-07 18:05 | 47.66622 | 6.43767 | 40038 ft | 466 kts | 281° |
| 2026-05-07 18:05 | 47.68084 | 6.34400 | 40043 ft | 466 kts | 281° |
| 2026-05-07 18:06 | 47.69602 | 6.25055 | 40039 ft | 467 kts | 284° |
| 2026-05-07 18:06 | 47.71562 | 6.15927 | 40052 ft | 467 kts | 287° |
| 2026-05-07 18:07 | 47.73630 | 6.06762 | 40040 ft | 467 kts | 286° |
| 2026-05-07 18:07 | 47.75627 | 5.97565 | 40038 ft | 467 kts | 285° |
| 2026-05-07 18:08 | 47.77568 | 5.88352 | 40040 ft | 468 kts | 285° |
| 2026-05-07 18:08 | 47.79495 | 5.79106 | 40047 ft | 468 kts | 285° |
| 2026-05-07 18:09 | 47.81417 | 5.69849 | 40046 ft | 468 kts | 285° |
| 2026-05-07 18:09 | 47.83333 | 5.60599 | 40044 ft | 469 kts | 285° |
| 2026-05-07 18:10 | 47.85235 | 5.51371 | 40048 ft | 469 kts | 285° |
| 2026-05-07 18:10 | 47.87141 | 5.42082 | 40047 ft | 469 kts | 285° |
| 2026-05-07 18:11 | 47.89040 | 5.32796 | 40046 ft | 469 kts | 284° |
| 2026-05-07 18:11 | 47.91728 | 5.23915 | 40043 ft | 473 kts | 300° |
| 2026-05-07 18:12 | 47.95850 | 5.16206 | 40044 ft | 477 kts | 309° |
| 2026-05-07 18:12 | 48.00311 | 5.08849 | 40043 ft | 478 kts | 310° |
| 2026-05-07 18:13 | 48.04814 | 5.01512 | 40046 ft | 478 kts | 309° |
| 2026-05-07 18:13 | 48.09283 | 4.94154 | 40049 ft | 478 kts | 309° |
| 2026-05-07 18:14 | 48.13709 | 4.86803 | 40045 ft | 478 kts | 309° |
| 2026-05-07 18:14 | 48.18161 | 4.79376 | 40042 ft | 479 kts | 309° |
| 2026-05-07 18:15 | 48.22604 | 4.71944 | 40045 ft | 479 kts | 309° |
| 2026-05-07 18:15 | 48.27049 | 4.64490 | 40049 ft | 479 kts | 309° |
| 2026-05-07 18:16 | 48.31489 | 4.57026 | 40040 ft | 479 kts | 309° |
| 2026-05-07 18:16 | 48.35926 | 4.49542 | 40047 ft | 479 kts | 309° |
| 2026-05-07 18:17 | 48.40358 | 4.42046 | 40041 ft | 479 kts | 309° |
| 2026-05-07 18:17 | 48.44758 | 4.34585 | 40045 ft | 479 kts | 309° |
| 2026-05-07 18:18 | 48.49179 | 4.27065 | 40045 ft | 479 kts | 309° |
| 2026-05-07 18:18 | 48.53596 | 4.19531 | 40048 ft | 479 kts | 309° |
| 2026-05-07 18:19 | 48.58013 | 4.11977 | 40045 ft | 479 kts | 309° |
| 2026-05-07 18:19 | 48.62416 | 4.04424 | 40045 ft | 479 kts | 309° |
| 2026-05-07 18:20 | 48.66819 | 3.96848 | 40045 ft | 479 kts | 309° |
| 2026-05-07 18:20 | 48.71223 | 3.89251 | 40043 ft | 480 kts | 308° |
| 2026-05-07 18:21 | 48.75762 | 3.81758 | 40044 ft | 481 kts | 313° |
| 2026-05-07 18:21 | 48.80579 | 3.74754 | 40046 ft | 482 kts | 314° |
| 2026-05-07 18:22 | 48.85441 | 3.67730 | 40045 ft | 482 kts | 313° |
| 2026-05-07 18:22 | 48.90210 | 3.60676 | 40047 ft | 482 kts | 313° |
| 2026-05-07 18:23 | 48.94991 | 3.53509 | 40046 ft | 482 kts | 313° |
| 2026-05-07 18:23 | 48.99756 | 3.46329 | 40048 ft | 482 kts | 313° |
| 2026-05-07 18:24 | 49.04514 | 3.39146 | 40047 ft | 482 kts | 313° |
| 2026-05-07 18:24 | 49.09280 | 3.31933 | 40051 ft | 482 kts | 313° |
| 2026-05-07 18:25 | 49.14045 | 3.24704 | 40049 ft | 482 kts | 313° |
| 2026-05-07 18:25 | 49.18805 | 3.17461 | 40048 ft | 482 kts | 312° |
| 2026-05-07 18:26 | 49.23524 | 3.10260 | 40049 ft | 482 kts | 312° |
| 2026-05-07 18:26 | 49.28272 | 3.02995 | 40050 ft | 483 kts | 312° |
| 2026-05-07 18:27 | 49.33018 | 2.95709 | 40046 ft | 483 kts | 312° |
| 2026-05-07 18:27 | 49.37760 | 2.88408 | 40048 ft | 483 kts | 312° |
| 2026-05-07 18:28 | 49.42497 | 2.81096 | 40050 ft | 483 kts | 312° |
| 2026-05-07 18:28 | 49.47239 | 2.73754 | 40052 ft | 483 kts | 312° |
| 2026-05-07 18:29 | 49.51944 | 2.66448 | 40048 ft | 483 kts | 312° |
| 2026-05-07 18:29 | 49.56676 | 2.59079 | 40045 ft | 483 kts | 312° |
| 2026-05-07 18:30 | 49.61570 | 2.51964 | 40051 ft | 485 kts | 319° |
| 2026-05-07 18:30 | 49.66897 | 2.45549 | 40046 ft | 486 kts | 320° |
| 2026-05-07 18:31 | 49.72269 | 2.39252 | 40046 ft | 486 kts | 320° |
| 2026-05-07 18:31 | 49.77673 | 2.32920 | 40049 ft | 486 kts | 320° |
| 2026-05-07 18:32 | 49.83059 | 2.26571 | 40049 ft | 486 kts | 320° |
| 2026-05-07 18:32 | 49.88444 | 2.20192 | 40050 ft | 486 kts | 320° |
| 2026-05-07 18:33 | 49.93779 | 2.13852 | 40048 ft | 486 kts | 320° |
| 2026-05-07 18:33 | 49.99149 | 2.07454 | 40048 ft | 486 kts | 320° |
| 2026-05-07 18:34 | 50.04519 | 2.01036 | 40049 ft | 486 kts | 320° |
| 2026-05-07 18:34 | 50.08989 | 1.95681 | 40050 ft | 487 kts | 320° |
| 2026-05-07 18:35 | 50.14351 | 1.89240 | 40045 ft | 487 kts | 320° |
| 2026-05-07 18:35 | 50.19454 | 1.82332 | 40046 ft | 484 kts | 314° |
| 2026-05-07 18:36 | 50.24308 | 1.75030 | 40047 ft | 484 kts | 313° |
| 2026-05-07 18:36 | 50.29130 | 1.67651 | 40020 ft | 485 kts | 313° |
| 2026-05-07 18:36 | 50.31512 | 1.63993 | 39749 ft | 484 kts | 313° |
| 2026-05-07 18:37 | 50.33910 | 1.60311 | 39174 ft | 483 kts | 313° |
| 2026-05-07 18:37 | 50.36317 | 1.56612 | 38458 ft | 485 kts | 313° |
| 2026-05-07 18:37 | 50.38733 | 1.52896 | 37627 ft | 486 kts | 313° |
| 2026-05-07 18:37 | 50.41147 | 1.49179 | 36820 ft | 487 kts | 313° |
| 2026-05-07 18:38 | 50.43569 | 1.45445 | 36041 ft | 486 kts | 313° |
| 2026-05-07 18:38 | 50.45978 | 1.41726 | 35309 ft | 485 kts | 313° |
| 2026-05-07 18:38 | 50.48349 | 1.38062 | 34581 ft | 484 kts | 313° |
| 2026-05-07 18:38 | 50.50732 | 1.34338 | 33836 ft | 481 kts | 311° |
| 2026-05-07 18:39 | 50.53011 | 1.30480 | 33007 ft | 479 kts | 310° |
| 2026-05-07 18:39 | 50.55255 | 1.26600 | 32205 ft | 478 kts | 310° |
| 2026-05-07 18:39 | 50.57477 | 1.22773 | 31431 ft | 477 kts | 310° |
| 2026-05-07 18:39 | 50.59755 | 1.18977 | 30665 ft | 476 kts | 313° |
| 2026-05-07 18:40 | 50.62104 | 1.15294 | 29907 ft | 475 kts | 313° |
| 2026-05-07 18:40 | 50.64454 | 1.11626 | 29039 ft | 473 kts | 313° |
| 2026-05-07 18:40 | 50.66778 | 1.07979 | 28210 ft | 471 kts | 313° |
| 2026-05-07 18:40 | 50.69099 | 1.04317 | 27404 ft | 469 kts | 313° |
| 2026-05-07 18:41 | 50.71398 | 1.00679 | 26609 ft | 467 kts | 313° |
| 2026-05-07 18:41 | 50.73626 | 0.97146 | 25867 ft | 447 kts | 313° |
| 2026-05-07 18:41 | 50.75766 | 0.93749 | 25133 ft | 425 kts | 313° |
| 2026-05-07 18:41 | 50.77801 | 0.90511 | 24442 ft | 410 kts | 312° |
| 2026-05-07 18:42 | 50.79814 | 0.87293 | 23739 ft | 413 kts | 312° |
| 2026-05-07 18:42 | 50.81845 | 0.84043 | 22924 ft | 416 kts | 313° |
| 2026-05-07 18:42 | 50.83882 | 0.80781 | 22098 ft | 418 kts | 313° |
| 2026-05-07 18:42 | 50.85931 | 0.77497 | 21301 ft | 420 kts | 313° |
| 2026-05-07 18:43 | 50.87986 | 0.74203 | 20523 ft | 421 kts | 313° |
| 2026-05-07 18:43 | 50.90041 | 0.70901 | 19766 ft | 421 kts | 313° |
| 2026-05-07 18:43 | 50.92097 | 0.67593 | 19039 ft | 421 kts | 313° |
| 2026-05-07 18:43 | 50.94153 | 0.64282 | 18439 ft | 417 kts | 313° |
| 2026-05-07 18:44 | 50.96166 | 0.61038 | 18108 ft | 406 kts | 313° |
| 2026-05-07 18:44 | 50.98081 | 0.57954 | 17915 ft | 389 kts | 313° |
| 2026-05-07 18:44 | 50.99948 | 0.54941 | 17593 ft | 379 kts | 313° |
| 2026-05-07 18:44 | 51.01781 | 0.51970 | 17183 ft | 372 kts | 313° |
| 2026-05-07 18:45 | 51.03580 | 0.49050 | 16772 ft | 366 kts | 313° |
| 2026-05-07 18:45 | 51.05347 | 0.46180 | 16373 ft | 361 kts | 313° |
| 2026-05-07 18:45 | 51.07093 | 0.43345 | 15964 ft | 355 kts | 312° |
| 2026-05-07 18:45 | 51.08856 | 0.40601 | 15579 ft | 352 kts | 315° |
| 2026-05-07 18:46 | 51.10632 | 0.37924 | 15208 ft | 351 kts | 315° |
| 2026-05-07 18:46 | 51.12377 | 0.35288 | 14912 ft | 349 kts | 315° |
| 2026-05-07 18:46 | 51.14130 | 0.32625 | 14831 ft | 349 kts | 314° |
| 2026-05-07 18:46 | 51.15889 | 0.29943 | 14828 ft | 350 kts | 314° |
| 2026-05-07 18:47 | 51.17648 | 0.27256 | 14834 ft | 350 kts | 314° |
| 2026-05-07 18:47 | 51.19403 | 0.24570 | 14803 ft | 350 kts | 314° |
| 2026-05-07 18:47 | 51.21162 | 0.21880 | 14456 ft | 350 kts | 314° |
| 2026-05-07 18:47 | 51.22910 | 0.19192 | 14165 ft | 348 kts | 314° |
| 2026-05-07 18:48 | 51.24657 | 0.16502 | 13665 ft | 348 kts | 314° |
| 2026-05-07 18:48 | 51.26377 | 0.13866 | 13117 ft | 346 kts | 314° |
| 2026-05-07 18:48 | 51.28109 | 0.11198 | 12616 ft | 345 kts | 314° |
| 2026-05-07 18:48 | 51.29808 | 0.08518 | 12091 ft | 342 kts | 311° |
| 2026-05-07 18:49 | 51.31065 | 0.05365 | 11579 ft | 330 kts | 289° |
| 2026-05-07 18:49 | 51.31535 | 0.01925 | 11104 ft | 307 kts | 273° |
| 2026-05-07 18:49 | 51.31673 | -0.01389 | 10610 ft | 291 kts | 271° |
| 2026-05-07 18:49 | 51.31766 | -0.04581 | 10149 ft | 285 kts | 271° |
| 2026-05-07 18:50 | 51.31850 | -0.07726 | 9637 ft | 283 kts | 271° |
| 2026-05-07 18:50 | 51.31928 | -0.10879 | 9100 ft | 285 kts | 271° |
| 2026-05-07 18:50 | 51.31999 | -0.14023 | 8591 ft | 288 kts | 271° |
| 2026-05-07 18:50 | 51.32065 | -0.17236 | 8058 ft | 290 kts | 271° |
| 2026-05-07 18:51 | 51.32128 | -0.20488 | 7540 ft | 292 kts | 271° |
| 2026-05-07 18:51 | 51.32181 | -0.23725 | 7168 ft | 289 kts | 271° |
| 2026-05-07 18:51 | 51.32227 | -0.26886 | 7056 ft | 276 kts | 271° |
| 2026-05-07 18:51 | 51.32267 | -0.29864 | 7048 ft | 260 kts | 271° |
| 2026-05-07 18:52 | 51.32306 | -0.32670 | 7058 ft | 246 kts | 271° |
| 2026-05-07 18:52 | 51.32342 | -0.35373 | 7053 ft | 241 kts | 271° |
| 2026-05-07 18:52 | 51.32378 | -0.38048 | 7048 ft | 241 kts | 271° |
| 2026-05-07 18:52 | 51.32414 | -0.40695 | 7007 ft | 241 kts | 271° |
| 2026-05-07 18:53 | 51.32448 | -0.43374 | 6995 ft | 241 kts | 271° |
| 2026-05-07 18:53 | 51.32482 | -0.46063 | 6992 ft | 241 kts | 271° |
| 2026-05-07 18:53 | 51.32529 | -0.48743 | 6987 ft | 241 kts | 274° |
| 2026-05-07 18:53 | 51.32757 | -0.51380 | 6954 ft | 242 kts | 280° |
| 2026-05-07 18:54 | 51.33069 | -0.54017 | 6723 ft | 241 kts | 281° |
| 2026-05-07 18:54 | 51.33388 | -0.56647 | 6477 ft | 241 kts | 281° |
| 2026-05-07 18:54 | 51.33703 | -0.59285 | 6216 ft | 241 kts | 281° |
| 2026-05-07 18:54 | 51.34015 | -0.61909 | 5953 ft | 240 kts | 281° |
| 2026-05-07 18:55 | 51.34326 | -0.64530 | 5701 ft | 240 kts | 281° |
| 2026-05-07 18:55 | 51.34637 | -0.67152 | 5442 ft | 240 kts | 281° |
| 2026-05-07 18:55 | 51.34947 | -0.69769 | 5181 ft | 239 kts | 281° |
| 2026-05-07 18:55 | 51.35467 | -0.72279 | 4932 ft | 239 kts | 301° |
| 2026-05-07 18:56 | 51.36420 | -0.74404 | 4675 ft | 238 kts | 309° |
| 2026-05-07 18:56 | 51.37474 | -0.76437 | 4421 ft | 237 kts | 310° |
| 2026-05-07 18:56 | 51.38537 | -0.78448 | 4161 ft | 236 kts | 310° |
| 2026-05-07 18:56 | 51.39743 | -0.80178 | 4005 ft | 229 kts | 333° |
| 2026-05-07 18:57 | 51.41219 | -0.80800 | 4001 ft | 214 kts | 356° |
| 2026-05-07 18:57 | 51.42647 | -0.80688 | 3964 ft | 199 kts | 19° |
| 2026-05-07 18:57 | 51.43756 | -0.79490 | 3777 ft | 192 kts | 51° |
| 2026-05-07 18:57 | 51.44504 | -0.77761 | 3566 ft | 187 kts | 59° |
| 2026-05-07 18:58 | 51.45166 | -0.75975 | 3306 ft | 186 kts | 60° |
| 2026-05-07 18:58 | 51.45819 | -0.74185 | 3060 ft | 186 kts | 60° |
| 2026-05-07 18:58 | 51.46465 | -0.72412 | 2814 ft | 186 kts | 60° |
| 2026-05-07 18:58 | 51.47121 | -0.70622 | 2506 ft | 187 kts | 60° |
| 2026-05-07 18:59 | 51.47601 | -0.68682 | 2197 ft | 186 kts | 82° |
| 2026-05-07 18:59 | 51.47640 | -0.66632 | 2005 ft | 179 kts | 94° |
| 2026-05-07 18:59 | 51.47615 | -0.64711 | 2000 ft | 166 kts | 91° |
| 2026-05-07 18:59 | 51.47635 | -0.62891 | 1904 ft | 164 kts | 91° |
| 2026-05-07 19:00 | 51.47650 | -0.61060 | 1689 ft | 163 kts | 91° |
| 2026-05-07 19:00 | 51.47661 | -0.59243 | 1467 ft | 163 kts | 91° |
| 2026-05-07 19:00 | 51.47673 | -0.57436 | 1239 ft | 159 kts | 91° |
| 2026-05-07 19:00 | 51.47685 | -0.55714 | 1021 ft | 148 kts | 91° |
| 2026-05-07 19:01 | 51.47701 | -0.54140 | 808 ft | 140 kts | 90° |
| 2026-05-07 19:01 | 51.47761 | -0.52587 | 619 ft | 138 kts | 88° |
| 2026-05-07 19:01 | 51.47769 | -0.51059 | 421 ft | 138 kts | 95° |
| 2026-05-07 19:01 | 51.47751 | -0.49524 | 245 ft | 135 kts | 91° |
| 2026-05-07 19:02 | 51.47760 | -0.48020 | 108 ft | 131 kts | 92° |
| 2026-05-07 19:02 | 51.47756 | -0.46716 | 101 ft | 88 kts | 90° |
| 2026-05-07 19:02 | 51.47721 | -0.46163 | 94 ft | 27 kts | 144° |
| 2026-05-07 19:02 | 51.47655 | -0.46100 | 95 ft | 3 kts | 146° |
| 2026-05-07 19:03 | 51.47617 | -0.46065 | 94 ft | 0 kts | 158° |
| 2026-05-07 19:03 | 51.47600 | -0.46063 | 95 ft | 0 kts | 180° |
| 2026-05-07 19:04 | 51.47566 | -0.46071 | 96 ft | 12 kts | 195° |
| 2026-05-07 19:04 | 51.47516 | -0.46212 | 93 ft | 13 kts | 270° |
| 2026-05-07 19:04 | 51.47516 | -0.46263 | 91 ft | 2 kts | 270° |
| 2026-05-07 19:04 | 51.47517 | -0.46310 | 91 ft | 2 kts | 271° |
| 2026-05-07 19:05 | 51.47518 | -0.46418 | 91 ft | 17 kts | 270° |
| 2026-05-07 19:05 | 51.47518 | -0.46650 | 91 ft | 19 kts | 269° |
| 2026-05-07 19:05 | 51.47432 | -0.46750 | 93 ft | 20 kts | 169° |
| 2026-05-07 19:05 | 51.47368 | -0.46733 | 92 ft | 0 kts | 172° |
| 2026-05-07 19:06 | 51.47335 | -0.46729 | 91 ft | 11 kts | 176° |
| 2026-05-07 19:06 | 51.47183 | -0.46727 | 91 ft | 8 kts | 180° |
| 2026-05-07 19:06 | 51.47090 | -0.46728 | 91 ft | 17 kts | 178° |
| 2026-05-07 19:07 | 51.46956 | -0.46623 | 95 ft | 25 kts | 146° |
| 2026-05-07 19:07 | 51.46923 | -0.46588 | 91 ft | 0 kts | 146° |
| 2026-05-07 19:07 | 51.46898 | -0.46561 | 95 ft | 11 kts | 146° |
| 2026-05-07 19:08 | 51.46834 | -0.46490 | 94 ft | 11 kts | 146° |
| 2026-05-07 19:08 | 51.46757 | -0.46382 | 94 ft | 20 kts | 117° |
| 2026-05-07 19:08 | 51.46748 | -0.46112 | 94 ft | 29 kts | 90° |
| 2026-05-07 19:08 | 51.46749 | -0.45755 | 91 ft | 32 kts | 90° |
| 2026-05-07 19:09 | 51.46751 | -0.45481 | 91 ft | 26 kts | 89° |
| 2026-05-07 19:09 | 51.46753 | -0.45177 | 91 ft | 24 kts | 89° |
| 2026-05-07 19:09 | 51.46755 | -0.44865 | 94 ft | 31 kts | 90° |
| 2026-05-07 19:09 | 51.46758 | -0.44610 | 94 ft | 17 kts | 74° |
| 2026-05-07 19:10 | 51.46872 | -0.44555 | 94 ft | 18 kts | 358° |
| 2026-05-07 19:10 | 51.46996 | -0.44539 | 94 ft | 12 kts | 27° |
| 2026-05-07 19:10 | 51.47018 | -0.44447 | 94 ft | 11 kts | 85° |
| 2026-05-07 19:10 | 51.47019 | -0.44412 | 94 ft | 0 kts | 87° |